createdAt,value
2023-02-08T00:01:30.835Z,-1.60
2023-02-08T00:03:59.376Z,-1.60
2023-02-08T00:06:29.339Z,-1.60
2023-02-08T00:08:58.002Z,-1.60
2023-02-08T00:11:26.555Z,-1.60
2023-02-08T00:13:55.113Z,-1.60
2023-02-08T00:16:23.929Z,-1.70
2023-02-08T00:18:52.878Z,-1.70
2023-02-08T00:21:21.419Z,-1.70
2023-02-08T00:23:51.292Z,-1.70
2023-02-08T00:26:19.980Z,-1.70
2023-02-08T00:28:48.868Z,-1.70
2023-02-08T00:31:19.545Z,-1.80
2023-02-08T00:33:48.268Z,-1.80
2023-02-08T00:36:16.837Z,-1.80
2023-02-08T00:38:45.411Z,-1.80
2023-02-08T00:41:15.501Z,-1.80
2023-02-08T00:43:44.125Z,-1.80
2023-02-08T00:46:12.952Z,-1.80
2023-02-08T00:48:41.739Z,-1.90
2023-02-08T00:51:15.811Z,-1.90
2023-02-08T00:53:46.424Z,-1.90
2023-02-08T00:56:16.896Z,-1.90
2023-02-08T00:58:45.670Z,-1.90
2023-02-08T01:01:14.823Z,-1.90
2023-02-08T01:03:44.658Z,-2.00
2023-02-08T01:06:16.180Z,-2.00
2023-02-08T01:08:45.020Z,-2.00
2023-02-08T01:11:18.495Z,-2.00
2023-02-08T01:13:47.103Z,-2.00
2023-02-08T01:16:19.385Z,-2.10
2023-02-08T01:18:50.684Z,-2.10
2023-02-08T01:21:21.326Z,-2.10
2023-02-08T01:23:50.541Z,-2.10
2023-02-08T01:26:22.291Z,-2.10
2023-02-08T01:28:51.369Z,-2.20
2023-02-08T01:31:21.797Z,-2.10
2023-02-08T01:33:50.492Z,-2.20
2023-02-08T01:36:19.680Z,-2.20
2023-02-08T01:38:48.978Z,-2.20
2023-02-08T01:41:20.887Z,-2.20
2023-02-08T01:44:35.066Z,-2.20
2023-02-08T01:47:03.724Z,-2.40
2023-02-08T01:49:36.124Z,-2.20
2023-02-08T01:52:08.628Z,-2.20
2023-02-08T01:54:41.433Z,-2.20
2023-02-08T01:57:11.956Z,-2.20
2023-02-08T01:59:44.569Z,-2.30
2023-02-08T02:02:17.251Z,-2.20
2023-02-08T02:04:46.053Z,-2.20
2023-02-08T02:07:15.374Z,-2.30
2023-02-08T02:09:46.334Z,-2.30
2023-02-08T02:12:17.412Z,-2.30
2023-02-08T02:14:46.659Z,-2.30
2023-02-08T02:17:17.650Z,-2.30
2023-02-08T02:19:55.106Z,-2.30
2023-02-08T02:22:55.334Z,-2.30
2023-02-08T02:25:59.731Z,-2.40
2023-02-08T02:29:01.527Z,-2.40
2023-02-08T02:32:00.694Z,-2.40
2023-02-08T02:34:38.735Z,-2.40
2023-02-08T02:37:16.941Z,-2.40
2023-02-08T02:40:15.527Z,-2.40
2023-02-08T02:43:10.915Z,-2.40
2023-02-08T02:45:46.386Z,-2.50
2023-02-08T02:48:23.419Z,-2.50
2023-02-08T02:50:57.528Z,-2.50
2023-02-08T02:53:33.202Z,-2.50
2023-02-08T02:56:08.252Z,-2.50
2023-02-08T02:58:39.376Z,-2.50
2023-02-08T03:01:07.998Z,-2.50
2023-02-08T03:03:38.231Z,-2.50
2023-02-08T03:06:11.515Z,-2.50
2023-02-08T03:09:15.532Z,-2.50
2023-02-08T03:11:52.373Z,-2.50
2023-02-08T03:14:34.894Z,-2.60
2023-02-08T03:17:14.711Z,-2.60
2023-02-08T03:19:52.270Z,-2.60
2023-02-08T03:22:26.817Z,-2.60
2023-02-08T03:25:00.352Z,-2.60
2023-02-08T03:27:32.587Z,-2.60
2023-02-08T03:30:04.810Z,-2.60
2023-02-08T03:32:41.791Z,-2.60
2023-02-08T03:35:18.129Z,-2.10
2023-02-08T03:37:49.939Z,-2.60
2023-02-08T03:40:26.361Z,-2.60
2023-02-08T03:42:57.930Z,-2.60
2023-02-08T03:45:31.818Z,-2.60
2023-02-08T03:48:04.164Z,-2.60
2023-02-08T03:50:38.864Z,-2.60
2023-02-08T03:53:09.679Z,-2.60
2023-02-08T03:55:39.928Z,-2.60
2023-02-08T03:58:17.214Z,-2.60
2023-02-08T04:00:50.571Z,-2.70
2023-02-08T04:03:22.935Z,-2.70
2023-02-08T04:05:53.476Z,-2.70
2023-02-08T04:08:22.117Z,-2.70
2023-02-08T04:10:50.770Z,-2.70
2023-02-08T04:13:19.339Z,-2.70
2023-02-08T04:15:48.145Z,-2.70
2023-02-08T04:18:16.882Z,-2.70
2023-02-08T04:20:45.407Z,-2.30
2023-02-08T04:23:15.289Z,-2.70
2023-02-08T04:25:44.495Z,-2.70
2023-02-08T04:28:13.097Z,-2.70
2023-02-08T04:30:42.020Z,-2.80
2023-02-08T04:33:13.092Z,-2.70
2023-02-08T04:35:41.742Z,-2.70
2023-02-08T04:38:10.627Z,-2.70
2023-02-08T04:40:40.981Z,-2.70
2023-02-08T04:43:09.710Z,-2.80
2023-02-08T04:45:38.326Z,-2.80
2023-02-08T04:48:07.976Z,-2.40
2023-02-08T04:50:36.688Z,-2.70
2023-02-08T04:53:06.450Z,-2.70
2023-02-08T04:55:35.575Z,-2.70
2023-02-08T04:58:05.685Z,-2.70
2023-02-08T05:00:34.215Z,-2.70
2023-02-08T05:03:02.920Z,-2.70
2023-02-08T05:05:31.937Z,-2.70
2023-02-08T05:08:00.822Z,-2.70
2023-02-08T05:10:29.667Z,-2.70
2023-02-08T05:12:58.209Z,-2.70
2023-02-08T05:15:28.164Z,-2.70
2023-02-08T05:17:56.847Z,-2.70
2023-02-08T05:20:25.466Z,-2.70
2023-02-08T05:22:54.022Z,-2.70
2023-02-08T05:25:22.984Z,-2.70
2023-02-08T05:27:51.574Z,-2.70
2023-02-08T05:30:20.247Z,-2.70
2023-02-08T05:32:50.234Z,-2.70
2023-02-08T05:35:18.936Z,-2.70
2023-02-08T05:37:47.542Z,-2.70
2023-02-08T05:40:16.647Z,-2.70
2023-02-08T05:42:45.255Z,-2.80
2023-02-08T05:45:13.930Z,-2.80
2023-02-08T05:47:42.994Z,-2.90
2023-02-08T05:50:12.930Z,-2.70
2023-02-08T05:52:41.568Z,-2.70
2023-02-08T05:55:10.444Z,-2.70
2023-02-08T05:57:40.766Z,-2.70
2023-02-08T06:00:10.746Z,-2.80
2023-02-08T06:02:44.707Z,-2.70
2023-02-08T06:05:14.646Z,-2.80
2023-02-08T06:07:43.222Z,-2.80
2023-02-08T06:10:11.756Z,-2.80
2023-02-08T06:12:40.313Z,-2.80
2023-02-08T06:15:09.826Z,-2.80
2023-02-08T06:17:38.343Z,-2.80
2023-02-08T06:20:07.753Z,-2.80
2023-02-08T06:22:37.879Z,-2.80
2023-02-08T06:25:07.009Z,-2.80
2023-02-08T06:27:35.913Z,-2.80
2023-02-08T06:30:05.195Z,-2.90
2023-02-08T06:32:33.722Z,-2.90
2023-02-08T06:35:02.938Z,-2.90
2023-02-08T06:37:31.671Z,-2.90
2023-02-08T06:40:02.016Z,-2.90
2023-02-08T06:42:30.834Z,-2.90
2023-02-08T06:44:59.418Z,-2.90
2023-02-08T06:47:28.906Z,-2.90
2023-02-08T06:49:57.487Z,-2.90
2023-02-08T06:52:26.101Z,-3.00
2023-02-08T06:54:54.951Z,-3.00
2023-02-08T06:57:24.872Z,-3.00
2023-02-08T06:59:53.835Z,-3.00
2023-02-08T07:02:23.180Z,-3.00
2023-02-08T07:04:51.801Z,-3.00
2023-02-08T07:07:20.444Z,-3.00
2023-02-08T07:09:49.088Z,-3.00
2023-02-08T07:12:17.898Z,-3.00
2023-02-08T07:14:48.022Z,-3.00
2023-02-08T07:17:16.599Z,-3.00
2023-02-08T07:19:45.224Z,-3.00
2023-02-08T07:22:13.906Z,-3.00
2023-02-08T07:24:43.672Z,-3.00
2023-02-08T07:27:14.186Z,-3.00
2023-02-08T07:29:42.909Z,-3.00
2023-02-08T07:32:13.662Z,-3.00
2023-02-08T07:34:42.401Z,-2.60
2023-02-08T07:37:11.005Z,-3.00
2023-02-08T07:39:39.764Z,-2.90
2023-02-08T07:42:09.792Z,-2.90
2023-02-08T07:44:50.895Z,-2.90
2023-02-08T07:47:20.826Z,-2.90
2023-02-08T07:49:49.352Z,-2.90
2023-02-08T07:52:17.971Z,-2.80
2023-02-08T07:54:46.487Z,-2.80
2023-02-08T07:57:20.933Z,-2.80
2023-02-08T07:59:49.631Z,-2.70
2023-02-08T08:02:22.623Z,-2.70
2023-02-08T08:04:54.095Z,-2.60
2023-02-08T08:07:22.814Z,-2.50
2023-02-08T08:09:51.364Z,-2.40
2023-02-08T08:12:19.830Z,-2.20
2023-02-08T08:14:48.537Z,-2.20
2023-02-08T08:17:17.235Z,-2.10
2023-02-08T08:19:47.622Z,-2.00
2023-02-08T08:22:16.670Z,-1.90
2023-02-08T08:24:45.406Z,-1.80
2023-02-08T08:27:14.027Z,-1.70
2023-02-08T08:29:42.668Z,-1.60
2023-02-08T08:32:11.951Z,-1.50
2023-02-08T08:34:40.594Z,-1.50
2023-02-08T08:37:10.978Z,-1.40
2023-02-08T08:39:39.561Z,-1.30
2023-02-08T08:42:08.248Z,-1.20
2023-02-08T08:44:36.888Z,-1.20
2023-02-08T08:47:05.581Z,-1.10
2023-02-08T08:49:35.440Z,-0.80
2023-02-08T08:52:06.127Z,-1.00
2023-02-08T08:54:36.488Z,-0.80
2023-02-08T08:57:05.348Z,-0.80
2023-02-08T08:59:34.199Z,-0.70
2023-02-08T09:02:02.930Z,-0.60
2023-02-08T09:04:31.791Z,-0.60
2023-02-08T09:07:00.362Z,-0.40
2023-02-08T09:09:28.998Z,-0.30
2023-02-08T09:11:58.838Z,-0.30
2023-02-08T09:14:27.719Z,-0.10
2023-02-08T09:16:56.536Z,0.00
2023-02-08T09:19:25.312Z,0.10
2023-02-08T09:21:53.799Z,0.10
2023-02-08T09:24:22.318Z,0.20
2023-02-08T09:26:51.009Z,0.20
2023-02-08T09:29:20.886Z,0.30
2023-02-08T09:31:49.494Z,0.30
2023-02-08T09:34:18.071Z,0.40
2023-02-08T09:36:46.734Z,0.50
2023-02-08T09:39:18.351Z,0.60
2023-02-08T09:42:01.584Z,0.70
2023-02-08T09:44:37.991Z,0.80
2023-02-08T09:47:15.965Z,0.90
2023-02-08T09:49:56.897Z,1.00
2023-02-08T09:52:32.848Z,1.10
2023-02-08T09:55:05.258Z,1.30
2023-02-08T09:57:41.046Z,1.40
2023-02-08T10:00:19.137Z,1.40
2023-02-08T10:02:49.892Z,1.50
2023-02-08T10:05:23.219Z,1.70
2023-02-08T10:07:51.847Z,1.80
2023-02-08T10:10:25.654Z,1.90
2023-02-08T10:13:01.356Z,2.00
2023-02-08T10:15:42.580Z,2.10
2023-02-08T10:18:35.714Z,2.30
2023-02-08T10:21:22.144Z,2.40
2023-02-08T10:24:09.580Z,2.50
2023-02-08T10:26:44.745Z,2.60
2023-02-08T10:29:51.273Z,2.70
2023-02-08T10:32:35.370Z,2.90
2023-02-08T10:35:11.060Z,3.00
2023-02-08T10:37:45.564Z,3.10
2023-02-08T10:40:27.776Z,3.30
2023-02-08T10:43:04.759Z,3.40
2023-02-08T10:45:40.209Z,3.50
2023-02-08T10:48:16.880Z,3.60
2023-02-08T10:50:51.012Z,3.70
2023-02-08T10:53:22.358Z,3.70
2023-02-08T10:55:51.684Z,3.80
2023-02-08T10:58:25.480Z,3.90
2023-02-08T11:00:56.697Z,4.00
2023-02-08T11:03:28.291Z,4.10
2023-02-08T11:05:58.732Z,4.10
2023-02-08T11:08:29.266Z,4.20
2023-02-08T11:11:07.011Z,4.30
2023-02-08T11:13:40.324Z,4.40
2023-02-08T11:16:15.773Z,4.50
2023-02-08T11:18:54.478Z,4.60
2023-02-08T11:21:26.370Z,4.60
2023-02-08T11:26:43.082Z,4.80
2023-02-08T11:29:19.312Z,4.90
2023-02-08T11:32:17.390Z,5.00
2023-02-08T11:34:48.972Z,5.00
2023-02-08T11:37:23.395Z,5.10
2023-02-08T11:39:58.069Z,5.20
2023-02-08T11:42:30.426Z,5.20
2023-02-08T11:45:03.258Z,5.30
2023-02-08T11:47:34.466Z,5.40
2023-02-08T11:50:07.599Z,5.40
2023-02-08T11:52:39.313Z,5.50
2023-02-08T11:55:24.739Z,5.50
2023-02-08T11:57:55.287Z,5.50
2023-02-08T12:00:26.486Z,5.60
2023-02-08T12:02:59.962Z,5.60
2023-02-08T12:05:41.364Z,5.60
2023-02-08T12:08:19.873Z,5.70
2023-02-08T12:11:16.547Z,5.70
2023-02-08T12:13:59.639Z,5.80
2023-02-08T12:16:47.100Z,5.80
2023-02-08T12:19:35.838Z,5.90
2023-02-08T12:22:10.510Z,5.90
2023-02-08T12:24:49.150Z,5.90
2023-02-08T12:27:31.007Z,6.00
2023-02-08T12:30:11.156Z,6.00
2023-02-08T12:32:52.125Z,6.10
2023-02-08T12:36:05.452Z,6.10
2023-02-08T12:39:25.389Z,6.10
2023-02-08T12:42:24.594Z,6.10
2023-02-08T12:45:21.192Z,6.20
2023-02-08T12:48:05.236Z,6.30
2023-02-08T12:50:42.629Z,6.30
2023-02-08T12:53:20.853Z,6.30
2023-02-08T12:55:53.109Z,6.50
2023-02-08T12:58:29.086Z,6.40
2023-02-08T13:01:02.407Z,6.40
2023-02-08T13:03:38.011Z,6.40
2023-02-08T13:06:09.314Z,6.40
2023-02-08T13:08:47.283Z,6.40
2023-02-08T13:11:21.949Z,6.50
2023-02-08T13:13:58.578Z,6.50
2023-02-08T13:16:31.762Z,6.60
2023-02-08T15:38:20.369Z,5.70
2023-02-08T15:41:02.348Z,5.70
2023-02-08T15:43:31.514Z,5.60
2023-02-08T15:46:01.974Z,5.60
2023-02-08T15:48:33.538Z,5.60
2023-02-08T15:51:03.165Z,5.50
2023-02-08T15:53:33.217Z,5.40
2023-02-08T15:56:04.649Z,5.40
2023-02-08T15:58:36.935Z,5.30
2023-02-08T16:01:08.033Z,5.40
2023-02-08T16:03:38.705Z,5.20
2023-02-08T16:06:10.819Z,5.20
2023-02-08T16:08:43.808Z,5.10
2023-02-08T16:11:16.190Z,5.00
2023-02-08T16:13:49.296Z,5.00
2023-02-08T16:16:20.899Z,4.90
2023-02-08T16:18:58.323Z,4.90
2023-02-08T16:21:39.513Z,4.80
2023-02-08T16:24:22.391Z,4.70
2023-02-08T16:27:01.586Z,4.70
2023-02-08T16:29:32.159Z,4.60
2023-02-08T16:32:12.529Z,4.50
2023-02-08T16:34:42.284Z,4.40
2023-02-08T16:37:26.560Z,4.40
2023-02-08T16:39:58.452Z,4.30
2023-02-08T16:42:30.570Z,4.20
2023-02-08T16:45:20.942Z,4.10
2023-02-08T16:47:52.851Z,4.00
2023-02-08T16:50:23.197Z,4.00
2023-02-08T16:52:55.480Z,3.90
2023-02-08T16:55:27.631Z,3.80
2023-02-08T16:57:57.865Z,3.70
2023-02-08T17:00:29.545Z,3.60
2023-02-08T17:02:58.625Z,3.60
2023-02-08T17:05:30.182Z,3.50
2023-02-08T17:08:00.119Z,3.40
2023-02-08T17:10:32.226Z,3.30
2023-02-08T17:13:18.720Z,3.30
2023-02-08T17:15:50.347Z,3.20
2023-02-08T17:18:18.987Z,3.00
2023-02-08T17:20:48.104Z,3.10
2023-02-08T17:23:16.770Z,3.00
2023-02-08T17:25:46.963Z,2.90
2023-02-08T17:28:19.447Z,2.90
2023-02-08T17:30:49.461Z,2.80
2023-02-08T17:33:21.444Z,2.80
2023-02-08T17:35:52.129Z,2.70
2023-02-08T17:38:21.636Z,2.60
2023-02-08T17:40:51.872Z,2.70
2023-02-08T17:43:20.742Z,2.50
2023-02-08T17:45:51.776Z,2.50
2023-02-08T17:48:20.497Z,2.40
2023-02-08T17:50:50.969Z,2.40
2023-02-08T17:53:20.096Z,2.40
2023-02-08T17:55:48.861Z,2.30
2023-02-08T17:58:18.885Z,2.30
2023-02-08T18:00:47.601Z,2.30
2023-02-08T18:03:17.212Z,2.20
2023-02-08T18:05:45.797Z,2.20
2023-02-08T18:08:14.737Z,2.10
2023-02-08T18:10:43.497Z,2.10
2023-02-08T18:13:12.173Z,2.10
2023-02-08T18:15:42.424Z,2.10
2023-02-08T18:18:11.683Z,2.10
2023-02-08T18:20:44.832Z,2.00
2023-02-08T18:23:13.431Z,2.00
2023-02-08T18:25:42.693Z,2.00
2023-02-08T18:28:15.181Z,2.00
2023-02-08T18:30:45.250Z,2.00
2023-02-08T18:33:14.032Z,1.90
2023-02-08T18:35:48.406Z,1.80
2023-02-08T18:38:16.949Z,1.80
2023-02-08T18:40:45.561Z,1.70
2023-02-08T18:43:14.126Z,1.60
2023-02-08T18:45:43.128Z,1.50
2023-02-08T18:48:13.194Z,1.40
2023-02-08T18:50:41.802Z,1.30
2023-02-08T18:53:10.461Z,1.30
2023-02-08T18:55:38.962Z,1.20
2023-02-08T18:58:07.500Z,1.10
2023-02-08T19:00:36.164Z,1.00
2023-02-08T19:03:04.827Z,0.90
2023-02-08T19:05:38.254Z,0.90
2023-02-08T19:08:06.771Z,0.80
2023-02-08T19:10:36.748Z,0.80
2023-02-08T19:13:07.502Z,0.70
2023-02-08T19:15:37.698Z,0.60
2023-02-08T19:18:08.145Z,0.60
2023-02-08T19:20:39.227Z,0.50
2023-02-08T19:23:08.138Z,0.50
2023-02-08T19:25:39.208Z,0.40
2023-02-08T19:28:08.163Z,0.40
2023-02-08T19:30:36.673Z,0.40
2023-02-08T19:33:05.207Z,0.30
2023-02-08T19:35:39.024Z,0.30
2023-02-08T19:38:07.601Z,0.30
2023-02-08T19:40:36.175Z,0.30
2023-02-08T19:43:04.741Z,0.30
2023-02-08T19:45:33.234Z,0.30
2023-02-08T19:48:02.177Z,0.30
2023-02-08T19:50:30.675Z,0.30
2023-02-08T19:53:00.511Z,0.40
2023-02-08T19:55:29.091Z,0.50
2023-02-08T19:57:57.609Z,0.50
2023-02-08T20:00:26.362Z,0.60
2023-02-08T20:02:54.891Z,0.60
2023-02-08T20:05:23.471Z,0.70
2023-02-08T20:07:51.973Z,0.70
2023-02-08T20:10:21.988Z,0.80
2023-02-08T20:12:50.522Z,0.80
2023-02-08T20:15:19.199Z,0.80
2023-02-08T20:17:47.739Z,0.90
2023-02-08T20:20:16.520Z,0.80
2023-02-08T20:22:45.064Z,0.90
2023-02-08T20:25:13.598Z,0.90
2023-02-08T20:27:43.447Z,0.90
2023-02-08T20:30:13.091Z,0.80
2023-02-08T20:32:41.879Z,0.80
2023-02-08T20:35:10.442Z,0.80
2023-02-08T20:37:39.066Z,0.70
2023-02-08T20:40:09.355Z,0.80
2023-02-08T20:42:38.306Z,0.60
2023-02-08T20:45:09.773Z,0.60
2023-02-08T20:47:46.433Z,0.60
2023-02-08T20:50:20.422Z,0.60
2023-02-08T20:52:49.267Z,0.60
2023-02-08T20:55:18.035Z,0.60
2023-02-08T20:57:46.541Z,0.70
2023-02-08T21:00:17.248Z,0.70
2023-02-08T21:02:45.870Z,0.80
2023-02-08T21:05:14.709Z,0.90
2023-02-08T21:07:43.187Z,1.00
2023-02-08T21:10:11.809Z,1.10
2023-02-08T21:12:40.412Z,1.10
2023-02-08T21:15:10.090Z,1.20
2023-02-08T21:17:41.162Z,1.30
2023-02-08T21:20:11.972Z,1.30
2023-02-08T21:22:40.610Z,1.30
2023-02-08T21:25:10.096Z,1.30
2023-02-08T21:27:38.818Z,1.30
2023-02-08T21:30:08.042Z,1.30
2023-02-08T21:32:36.637Z,1.40
2023-02-08T21:35:07.439Z,1.30
2023-02-08T21:37:36.047Z,1.30
2023-02-08T21:40:04.876Z,1.40
2023-02-08T21:42:34.645Z,1.30
2023-02-08T21:45:03.215Z,1.30
2023-02-08T21:47:31.796Z,1.40
2023-02-08T21:50:18.090Z,1.30
2023-02-08T21:53:05.404Z,1.30
2023-02-08T21:55:33.957Z,1.30
2023-02-08T21:58:02.528Z,1.20
2023-02-08T22:00:31.289Z,1.10
2023-02-08T22:02:59.872Z,1.10
2023-02-08T22:05:28.440Z,1.00
2023-02-08T22:08:00.264Z,1.00
2023-02-08T22:10:31.480Z,1.00
2023-02-08T22:13:00.631Z,0.90
2023-02-08T22:15:30.303Z,0.90
2023-02-08T22:18:00.942Z,0.80
2023-02-08T22:20:30.171Z,0.80
2023-02-08T22:23:00.068Z,0.80
2023-02-08T22:25:29.119Z,0.70
2023-02-08T22:27:57.805Z,0.70
2023-02-08T22:30:26.393Z,0.60
2023-02-08T22:32:54.918Z,0.60
2023-02-08T22:35:23.459Z,0.60
2023-02-08T22:37:52.083Z,0.60
2023-02-08T22:40:22.155Z,0.50
2023-02-08T22:42:50.738Z,0.50
2023-02-08T22:45:19.420Z,0.50
2023-02-08T22:47:47.943Z,0.40
2023-02-08T22:50:16.949Z,0.30
2023-02-08T22:52:45.537Z,0.30
2023-02-08T22:55:14.318Z,0.20
2023-02-08T22:57:44.178Z,0.10
2023-02-08T23:00:15.492Z,0.10
2023-02-08T23:02:44.281Z,0.00
2023-02-08T23:05:13.117Z,0.00
2023-02-08T23:07:41.934Z,-0.10
2023-02-08T23:10:12.062Z,-0.10
2023-02-08T23:12:40.899Z,-0.10
2023-02-08T23:15:12.494Z,-0.10
2023-02-08T23:17:41.068Z,-0.10
2023-02-08T23:20:11.003Z,-0.10
2023-02-08T23:22:39.659Z,-0.10
2023-02-08T23:25:08.574Z,-0.10
2023-02-08T23:27:37.147Z,-0.10
2023-02-08T23:30:09.157Z,-0.10
2023-02-08T23:32:39.599Z,-0.10
2023-02-08T23:35:10.473Z,-0.10
2023-02-08T23:37:39.212Z,-0.10
2023-02-08T23:40:08.753Z,-0.10
2023-02-08T23:42:37.275Z,-0.20
2023-02-08T23:45:07.260Z,-0.20
2023-02-08T23:47:36.413Z,-0.30
2023-02-08T23:50:07.161Z,-0.30
2023-02-08T23:52:36.409Z,-0.40
2023-02-08T23:55:06.282Z,-0.40
2023-02-08T23:57:36.043Z,-0.50
